createdAt,value
2017-07-14T00:00:08.696Z,18.73
2017-07-14T00:00:34.836Z,18.81
2017-07-14T00:01:00.964Z,18.73
2017-07-14T00:01:28.077Z,18.81
2017-07-14T00:01:55.992Z,18.74
2017-07-14T00:02:24.173Z,18.73
2017-07-14T00:02:50.220Z,18.83
2017-07-14T00:03:17.548Z,18.77
2017-07-14T00:03:45.664Z,18.81
2017-07-14T00:04:13.672Z,18.75
2017-07-14T00:04:40.900Z,18.81
2017-07-14T00:05:07.439Z,18.86
2017-07-14T00:05:34.461Z,18.83
2017-07-14T00:06:02.139Z,18.84
2017-07-14T00:06:29.578Z,18.86
2017-07-14T00:06:56.995Z,18.83
2017-07-14T00:07:24.161Z,18.86
2017-07-14T00:07:50.282Z,18.88
2017-07-14T00:08:16.404Z,18.86
2017-07-14T00:08:42.526Z,18.88
2017-07-14T00:09:08.652Z,18.84
2017-07-14T00:09:34.773Z,18.88
2017-07-14T00:10:00.895Z,18.84
2017-07-14T00:10:27.018Z,18.88
2017-07-14T00:10:53.140Z,18.86
2017-07-14T00:11:19.261Z,18.81
2017-07-14T00:11:45.385Z,18.93
2017-07-14T00:12:11.506Z,18.88
2017-07-14T00:12:37.629Z,18.9
2017-07-14T00:13:03.750Z,18.88
2017-07-14T00:13:29.872Z,18.86
2017-07-14T00:13:55.994Z,18.83
2017-07-14T00:14:22.117Z,18.83
2017-07-14T00:14:48.240Z,18.84
2017-07-14T00:15:14.365Z,18.84
2017-07-14T00:15:40.484Z,18.86
2017-07-14T00:16:06.606Z,18.86
2017-07-14T00:16:32.749Z,18.84
2017-07-14T00:16:58.870Z,18.81
2017-07-14T00:17:24.993Z,18.75
2017-07-14T00:17:51.116Z,18.74
2017-07-14T00:18:17.240Z,18.78
2017-07-14T00:18:43.382Z,18.84
2017-07-14T00:19:09.505Z,18.83
2017-07-14T00:19:35.627Z,18.89
2017-07-14T00:20:01.748Z,18.78
2017-07-14T00:20:27.870Z,18.84
2017-07-14T00:20:53.995Z,18.86
2017-07-14T00:21:20.117Z,18.81
2017-07-14T00:21:46.238Z,18.77
2017-07-14T00:22:12.360Z,18.84
2017-07-14T00:22:38.482Z,18.78
2017-07-14T00:23:04.603Z,18.75
2017-07-14T00:23:30.725Z,18.78
2017-07-14T00:23:56.847Z,18.84
2017-07-14T00:24:22.969Z,18.78
2017-07-14T00:24:49.090Z,18.81
2017-07-14T00:25:15.212Z,18.78
2017-07-14T00:25:41.335Z,18.77
2017-07-14T00:26:07.456Z,18.78
2017-07-14T00:26:33.579Z,18.7
2017-07-14T00:26:59.702Z,18.78
2017-07-14T00:27:25.822Z,18.73
2017-07-14T00:27:51.943Z,18.78
2017-07-14T00:28:18.065Z,18.8
2017-07-14T00:28:44.190Z,18.78
2017-07-14T00:29:10.309Z,18.8
2017-07-14T00:29:36.434Z,18.77
2017-07-14T00:30:02.555Z,18.77
2017-07-14T00:30:28.700Z,18.7
2017-07-14T00:30:54.822Z,18.78
2017-07-14T00:31:20.964Z,18.75
2017-07-14T00:31:47.087Z,18.74
2017-07-14T00:32:13.210Z,18.7
2017-07-14T00:32:39.334Z,18.65
2017-07-14T00:33:05.456Z,18.66
2017-07-14T00:33:31.577Z,18.68
2017-07-14T00:33:57.701Z,18.7
2017-07-14T00:34:23.824Z,18.68
2017-07-14T00:34:49.948Z,18.65
2017-07-14T00:35:16.069Z,18.62
2017-07-14T00:35:42.191Z,18.62
2017-07-14T00:36:08.312Z,18.66
2017-07-14T00:36:34.440Z,18.63
2017-07-14T00:37:00.558Z,18.66
2017-07-14T00:37:26.678Z,18.62
2017-07-14T00:37:52.802Z,18.6
2017-07-14T00:38:18.944Z,18.5
2017-07-14T00:38:45.066Z,18.52
2017-07-14T00:39:11.188Z,18.5
2017-07-14T00:39:37.311Z,18.49
2017-07-14T00:40:03.434Z,18.49
2017-07-14T00:40:29.555Z,18.55
2017-07-14T00:40:55.678Z,18.56
2017-07-14T00:41:21.802Z,18.5
2017-07-14T00:41:47.929Z,18.53
2017-07-14T00:42:14.046Z,18.5
2017-07-14T00:42:40.166Z,18.59
2017-07-14T00:43:06.289Z,18.59
2017-07-14T00:43:32.409Z,18.55
2017-07-14T00:43:58.534Z,18.62
2017-07-14T00:44:24.655Z,18.5
2017-07-14T00:44:50.778Z,18.62
2017-07-14T00:45:16.900Z,18.62
2017-07-14T00:45:43.023Z,18.52
2017-07-14T00:46:09.143Z,18.5
2017-07-14T00:46:35.269Z,18.55
2017-07-14T00:47:01.384Z,18.53
2017-07-14T00:47:27.508Z,18.49
2017-07-14T00:47:53.633Z,18.5
2017-07-14T00:48:19.755Z,18.4
2017-07-14T00:48:45.875Z,18.4
2017-07-14T00:49:11.996Z,18.49
2017-07-14T00:49:38.118Z,18.5
2017-07-14T00:50:04.242Z,18.47
2017-07-14T00:50:30.365Z,18.5
2017-07-14T00:50:56.486Z,18.53
2017-07-14T00:51:22.626Z,18.49
2017-07-14T00:51:48.730Z,18.5
2017-07-14T00:52:14.899Z,18.53
2017-07-14T00:52:41.014Z,18.52
2017-07-14T00:53:07.137Z,18.53
2017-07-14T00:53:33.259Z,18.52
2017-07-14T00:53:59.379Z,18.62
2017-07-14T00:54:25.500Z,18.6
2017-07-14T00:54:51.625Z,18.58
2017-07-14T00:55:17.748Z,18.6
2017-07-14T00:55:43.869Z,18.5
2017-07-14T00:56:09.993Z,18.47
2017-07-14T00:56:36.114Z,18.55
2017-07-14T00:57:02.236Z,18.53
2017-07-14T00:57:28.358Z,18.52
2017-07-14T00:57:54.481Z,18.58
2017-07-14T00:58:20.604Z,18.53
2017-07-14T00:58:46.724Z,18.55
2017-07-14T00:59:12.846Z,18.52
2017-07-14T00:59:38.988Z,18.44
2017-07-14T01:00:05.111Z,18.4
2017-07-14T01:00:31.241Z,18.35
2017-07-14T01:00:57.359Z,18.37
2017-07-14T01:01:23.484Z,18.26
2017-07-14T01:01:49.604Z,18.22
2017-07-14T01:02:15.724Z,18.15
2017-07-14T01:02:41.846Z,18.1
2017-07-14T01:03:07.968Z,18.08
2017-07-14T01:03:34.089Z,18.07
2017-07-14T01:04:00.218Z,18.05
2017-07-14T01:04:26.341Z,18.07
2017-07-14T01:04:52.462Z,18.1
2017-07-14T01:05:18.587Z,18.1
2017-07-14T01:05:44.709Z,18.11
2017-07-14T01:06:10.829Z,18.1
2017-07-14T01:06:36.950Z,18.04
2017-07-14T01:07:03.072Z,18.03
2017-07-14T01:07:29.194Z,18
2017-07-14T01:07:55.319Z,18.05
2017-07-14T01:08:21.456Z,18.07
2017-07-14T01:08:47.590Z,18.04
2017-07-14T01:09:13.738Z,18.04
2017-07-14T01:09:39.871Z,18.01
2017-07-14T01:10:06.003Z,17.94
2017-07-14T01:10:32.149Z,17.94
2017-07-14T01:10:58.287Z,17.94
2017-07-14T01:11:24.419Z,17.85
2017-07-14T01:11:50.561Z,17.92
2017-07-14T01:12:16.694Z,17.82
2017-07-14T01:12:42.839Z,17.74
2017-07-14T01:13:08.974Z,17.82
2017-07-14T01:13:35.100Z,17.8
2017-07-14T01:14:01.251Z,17.72
2017-07-14T01:14:27.414Z,17.79
2017-07-14T01:14:53.543Z,17.86
2017-07-14T01:15:19.689Z,17.74
2017-07-14T01:15:45.829Z,17.92
2017-07-14T01:16:11.958Z,17.78
2017-07-14T01:16:38.102Z,17.82
2017-07-14T01:17:04.246Z,17.79
2017-07-14T01:17:30.380Z,17.79
2017-07-14T01:17:56.514Z,17.8
2017-07-14T01:18:22.644Z,17.78
2017-07-14T01:18:48.791Z,17.92
2017-07-14T01:19:14.932Z,17.76
2017-07-14T01:19:41.059Z,17.76
2017-07-14T01:20:07.201Z,17.87
2017-07-14T01:20:33.349Z,17.82
2017-07-14T01:20:59.475Z,17.86
2017-07-14T01:21:25.618Z,17.87
2017-07-14T01:21:51.765Z,17.92
2017-07-14T01:22:17.896Z,17.94
2017-07-14T01:22:44.029Z,17.85
2017-07-14T01:23:10.165Z,17.82
2017-07-14T01:23:36.310Z,17.85
2017-07-14T01:24:02.455Z,17.86
2017-07-14T01:24:28.583Z,17.8
2017-07-14T01:24:54.721Z,17.76
2017-07-14T01:25:20.866Z,17.85
2017-07-14T01:25:47.000Z,17.87
2017-07-14T01:26:13.137Z,17.83
2017-07-14T01:26:39.280Z,17.85
2017-07-14T01:27:05.411Z,17.82
2017-07-14T01:27:31.541Z,17.74
2017-07-14T01:27:57.689Z,17.87
2017-07-14T01:28:23.828Z,17.82
2017-07-14T01:28:49.967Z,17.8
2017-07-14T01:29:16.101Z,17.8
2017-07-14T01:29:42.233Z,17.76
2017-07-14T01:30:08.380Z,17.82
2017-07-14T01:30:34.512Z,17.79
2017-07-14T01:31:00.644Z,17.6
2017-07-14T01:31:26.790Z,17.67
2017-07-14T01:31:52.928Z,17.78
2017-07-14T01:32:19.058Z,17.71
2017-07-14T01:32:45.202Z,17.79
2017-07-14T01:33:11.339Z,17.82
2017-07-14T01:33:37.470Z,17.76
2017-07-14T01:34:03.615Z,17.85
2017-07-14T01:34:29.745Z,17.83
2017-07-14T01:34:55.898Z,17.87
2017-07-14T01:35:22.034Z,17.83
2017-07-14T01:35:48.167Z,17.76
2017-07-14T01:36:14.309Z,17.83
2017-07-14T01:36:40.447Z,17.82
2017-07-14T01:37:06.574Z,17.83
2017-07-14T01:37:32.718Z,17.71
2017-07-14T01:37:58.860Z,17.78
2017-07-14T01:38:24.990Z,17.78
2017-07-14T01:38:51.129Z,17.85
2017-07-14T01:39:17.275Z,17.82
2017-07-14T01:39:43.407Z,17.82
2017-07-14T01:40:09.550Z,17.85
2017-07-14T01:40:35.676Z,17.86
2017-07-14T01:41:01.819Z,17.94
2017-07-14T01:41:27.969Z,17.8
2017-07-14T01:41:54.093Z,17.82
2017-07-14T01:42:20.230Z,17.83
2017-07-14T01:42:46.396Z,17.78
2017-07-14T01:43:12.528Z,17.78
2017-07-14T01:43:38.662Z,17.85
2017-07-14T01:44:04.808Z,17.82
2017-07-14T01:44:30.941Z,17.83
2017-07-14T01:44:57.073Z,17.85
2017-07-14T01:45:23.225Z,17.85
2017-07-14T01:45:49.358Z,17.86
2017-07-14T01:46:15.490Z,17.83
2017-07-14T01:46:41.633Z,17.72
2017-07-14T01:47:07.773Z,17.78
2017-07-14T01:47:33.902Z,17.8
2017-07-14T01:48:00.048Z,17.86
2017-07-14T01:48:26.190Z,17.83
2017-07-14T01:48:52.315Z,17.83
2017-07-14T01:49:18.456Z,17.72
2017-07-14T01:49:44.599Z,17.76
2017-07-14T01:50:10.730Z,17.72
2017-07-14T01:50:36.865Z,17.79
2017-07-14T01:51:03.002Z,17.79
2017-07-14T01:51:29.143Z,17.74
2017-07-14T01:51:55.293Z,17.74
2017-07-14T01:52:21.419Z,17.7
2017-07-14T01:52:47.559Z,17.6
2017-07-14T01:53:13.710Z,17.79
2017-07-14T01:53:39.837Z,17.74
2017-07-14T01:54:05.971Z,17.64
2017-07-14T01:54:32.119Z,17.57
2017-07-14T01:54:58.250Z,17.63
2017-07-14T01:55:24.379Z,17.63
2017-07-14T01:55:50.530Z,17.72
2017-07-14T01:56:16.665Z,17.57
2017-07-14T01:56:42.809Z,17.65
2017-07-14T01:57:08.935Z,17.57
2017-07-14T01:57:35.074Z,17.64
2017-07-14T01:58:01.218Z,17.72
2017-07-14T01:58:27.352Z,17.67
2017-07-14T01:58:53.479Z,17.65
2017-07-14T01:59:19.628Z,17.6
2017-07-14T01:59:45.764Z,17.57
2017-07-14T02:00:11.892Z,17.68
2017-07-14T02:00:38.039Z,17.65
2017-07-14T02:01:04.180Z,17.63
2017-07-14T02:01:30.309Z,17.63
2017-07-14T02:01:56.448Z,17.57
2017-07-14T02:02:22.582Z,17.6
2017-07-14T02:02:48.729Z,17.63
2017-07-14T02:03:14.863Z,17.64
2017-07-14T02:03:40.993Z,17.65
2017-07-14T02:04:07.142Z,17.68
2017-07-14T02:04:33.276Z,17.65
2017-07-14T02:04:59.408Z,17.68
2017-07-14T02:05:25.549Z,17.68
2017-07-14T02:05:51.699Z,17.64
2017-07-14T02:06:17.824Z,17.65
2017-07-14T02:06:43.964Z,17.59
2017-07-14T02:07:10.110Z,17.67
2017-07-14T02:07:36.242Z,17.67
2017-07-14T02:08:02.378Z,17.63
2017-07-14T02:08:28.526Z,17.59
2017-07-14T02:08:54.659Z,17.6
2017-07-14T02:09:20.786Z,17.6
2017-07-14T02:09:46.938Z,17.65
2017-07-14T02:10:13.272Z,17.6
2017-07-14T02:10:39.402Z,17.6
2017-07-14T02:11:05.545Z,17.63
2017-07-14T02:11:31.687Z,17.46
2017-07-14T02:11:57.815Z,17.56
2017-07-14T02:12:23.958Z,17.59
2017-07-14T02:12:50.691Z,17.57
2017-07-14T02:13:16.820Z,17.6
2017-07-14T02:13:42.965Z,17.6
2017-07-14T02:14:09.113Z,17.56
2017-07-14T02:14:35.236Z,17.6
2017-07-14T02:15:01.358Z,17.63
2017-07-14T02:15:27.489Z,17.63
2017-07-14T02:15:53.606Z,17.64
2017-07-14T02:16:19.722Z,17.65
2017-07-14T02:16:45.856Z,17.65
2017-07-14T02:17:11.977Z,17.6
2017-07-14T02:17:38.094Z,17.68
2017-07-14T02:18:04.223Z,17.67
2017-07-14T02:18:30.348Z,17.6
2017-07-14T02:18:56.473Z,17.68
2017-07-14T02:19:22.612Z,17.57
2017-07-14T02:19:48.737Z,17.63
2017-07-14T02:20:14.862Z,17.59
2017-07-14T02:20:40.982Z,17.48
2017-07-14T02:21:07.100Z,17.54
2017-07-14T02:21:33.229Z,17.57
2017-07-14T02:21:59.355Z,17.64
2017-07-14T02:22:25.472Z,17.65
2017-07-14T02:22:51.601Z,17.59
2017-07-14T02:23:17.740Z,17.6
2017-07-14T02:23:43.844Z,17.6
2017-07-14T02:24:09.969Z,17.64
2017-07-14T02:24:36.087Z,17.6
2017-07-14T02:25:02.218Z,17.65
2017-07-14T02:25:28.342Z,17.65
2017-07-14T02:25:54.457Z,17.7
2017-07-14T02:26:20.585Z,17.67
2017-07-14T02:26:46.718Z,17.65
2017-07-14T02:27:12.830Z,17.76
2017-07-14T02:27:38.956Z,17.64
2017-07-14T02:28:05.089Z,17.63
2017-07-14T02:28:31.206Z,17.57
2017-07-14T02:28:57.325Z,17.68
2017-07-14T02:29:23.462Z,17.63
2017-07-14T02:29:49.575Z,17.67
2017-07-14T02:30:15.690Z,17.63
2017-07-14T02:30:41.825Z,17.63
2017-07-14T02:31:07.969Z,17.64
2017-07-14T02:31:34.059Z,17.78
2017-07-14T02:32:00.192Z,17.76
2017-07-14T02:32:26.316Z,17.64
2017-07-14T02:32:52.451Z,17.68
2017-07-14T02:33:18.579Z,17.79
2017-07-14T02:33:44.710Z,17.76
2017-07-14T02:34:10.824Z,17.72
2017-07-14T02:34:36.947Z,17.78
2017-07-14T02:35:03.082Z,17.79
2017-07-14T02:35:29.218Z,17.72
2017-07-14T02:35:55.368Z,17.59
2017-07-14T02:36:21.486Z,17.72
2017-07-14T02:36:47.617Z,17.65
2017-07-14T02:37:13.747Z,17.63
2017-07-14T02:37:39.881Z,17.45
2017-07-14T02:38:06.008Z,17.49
2017-07-14T02:38:32.143Z,17.48
2017-07-14T02:38:58.277Z,17.41
2017-07-14T02:39:24.399Z,17.33
2017-07-14T02:39:50.554Z,17.29
2017-07-14T02:40:16.673Z,17.26
2017-07-14T02:40:42.790Z,17.24
2017-07-14T02:41:08.919Z,17.22
2017-07-14T02:41:35.044Z,17.15
2017-07-14T02:42:01.176Z,17.16
2017-07-14T02:42:27.291Z,17.12
2017-07-14T02:42:53.419Z,17.09
2017-07-14T02:43:19.568Z,17.09
2017-07-14T02:43:45.686Z,16.97
2017-07-14T02:44:11.802Z,17.02
2017-07-14T02:44:37.936Z,16.93
2017-07-14T02:45:04.058Z,16.81
2017-07-14T02:45:30.174Z,16.81
2017-07-14T02:45:56.304Z,16.69
2017-07-14T02:46:22.430Z,16.75
2017-07-14T02:46:48.555Z,16.71
2017-07-14T02:47:14.675Z,16.6
2017-07-14T02:47:40.790Z,16.51
2017-07-14T02:48:06.925Z,16.41
2017-07-14T02:48:33.048Z,16.42
2017-07-14T02:48:59.163Z,16.42
2017-07-14T02:49:25.294Z,16.35
2017-07-14T02:49:51.442Z,16.46
2017-07-14T02:50:17.558Z,16.39
2017-07-14T02:50:43.684Z,16.39
2017-07-14T02:51:09.816Z,16.38
2017-07-14T02:51:35.949Z,16.41
2017-07-14T02:52:02.076Z,16.42
2017-07-14T02:52:28.192Z,16.36
2017-07-14T02:52:54.323Z,16.35
2017-07-14T02:53:20.473Z,16.36
2017-07-14T02:53:46.590Z,16.39
2017-07-14T02:54:12.716Z,16.39
2017-07-14T02:54:38.847Z,16.28
2017-07-14T02:55:04.960Z,16.31
2017-07-14T02:55:31.085Z,16.28
2017-07-14T02:55:57.216Z,16.31
2017-07-14T02:56:23.332Z,16.36
2017-07-14T02:56:49.453Z,16.29
2017-07-14T02:57:15.584Z,16.31
2017-07-14T02:57:41.702Z,16.41
2017-07-14T02:58:07.835Z,16.43
2017-07-14T02:58:33.948Z,16.38
2017-07-14T02:59:00.071Z,16.39
2017-07-14T02:59:26.202Z,16.5
2017-07-14T02:59:52.318Z,16.49
2017-07-14T03:00:18.441Z,16.5
2017-07-14T03:00:44.575Z,16.43
2017-07-14T03:01:10.695Z,16.5
2017-07-14T03:01:36.809Z,16.47
2017-07-14T03:02:02.942Z,16.47
2017-07-14T03:02:29.063Z,16.49
2017-07-14T03:02:55.179Z,16.46
2017-07-14T03:03:21.309Z,16.41
2017-07-14T03:03:47.428Z,16.51
2017-07-14T03:04:13.559Z,16.46
2017-07-14T03:04:39.678Z,16.41
2017-07-14T03:05:05.793Z,16.39
2017-07-14T03:05:31.953Z,16.33
2017-07-14T03:05:58.075Z,16.21
2017-07-14T03:06:24.191Z,16.28
2017-07-14T03:06:50.324Z,16.31
2017-07-14T03:07:16.449Z,16.29
2017-07-14T03:07:42.566Z,16.2
2017-07-14T03:08:08.693Z,16.15
2017-07-14T03:08:34.825Z,16.2
2017-07-14T03:09:00.943Z,16.2
2017-07-14T03:09:27.067Z,16.16
2017-07-14T03:09:53.203Z,16.26
2017-07-14T03:10:19.334Z,16.29
2017-07-14T03:10:45.458Z,16.32
2017-07-14T03:11:11.575Z,16.29
2017-07-14T03:11:37.701Z,16.29
2017-07-14T03:12:03.832Z,16.32
2017-07-14T03:12:29.964Z,16.35
2017-07-14T03:12:56.088Z,16.43
2017-07-14T03:13:22.219Z,16.46
2017-07-14T03:13:48.336Z,16.46
2017-07-14T03:14:14.459Z,16.41
2017-07-14T03:14:40.592Z,16.46
2017-07-14T03:15:06.713Z,16.47
2017-07-14T03:15:32.827Z,16.46
2017-07-14T03:15:58.963Z,16.5
2017-07-14T03:16:25.085Z,16.42
2017-07-14T03:16:51.202Z,16.56
2017-07-14T03:17:17.335Z,16.58
2017-07-14T03:17:43.461Z,16.6
2017-07-14T03:18:09.577Z,16.56
2017-07-14T03:18:35.706Z,16.5
2017-07-14T03:19:01.837Z,16.6
2017-07-14T03:19:27.951Z,16.56
2017-07-14T03:19:54.077Z,16.53
2017-07-14T03:20:20.198Z,16.58
2017-07-14T03:20:46.331Z,16.69
2017-07-14T03:21:12.454Z,16.65
2017-07-14T03:21:38.570Z,16.78
2017-07-14T03:22:04.699Z,16.61
2017-07-14T03:22:30.830Z,16.68
2017-07-14T03:22:56.943Z,16.68
2017-07-14T03:23:23.065Z,16.69
2017-07-14T03:23:49.194Z,16.65
2017-07-14T03:24:15.328Z,16.79
2017-07-14T03:24:41.451Z,16.72
2017-07-14T03:25:07.582Z,16.83
2017-07-14T03:25:33.701Z,16.75
2017-07-14T03:25:59.833Z,16.72
2017-07-14T03:26:25.947Z,16.66
2017-07-14T03:26:52.072Z,16.69
2017-07-14T03:27:18.203Z,16.68
2017-07-14T03:27:44.316Z,16.66
2017-07-14T03:28:10.440Z,16.72
2017-07-14T03:28:36.570Z,16.61
2017-07-14T03:29:02.694Z,16.75
2017-07-14T03:29:28.803Z,16.69
2017-07-14T03:29:54.939Z,16.71
2017-07-14T03:30:21.061Z,16.71
2017-07-14T03:30:47.177Z,16.78
2017-07-14T03:31:13.408Z,16.71
2017-07-14T03:31:39.527Z,16.78
2017-07-14T03:32:05.658Z,16.74
2017-07-14T03:32:31.778Z,16.79
2017-07-14T03:32:57.891Z,16.79
2017-07-14T03:33:24.026Z,16.75
2017-07-14T03:33:50.148Z,16.74
2017-07-14T03:34:16.266Z,16.57
2017-07-14T03:34:42.398Z,16.51
2017-07-14T03:35:08.526Z,16.47
2017-07-14T03:35:34.642Z,16.39
2017-07-14T03:36:00.769Z,16.28
2017-07-14T03:36:26.900Z,16.26
2017-07-14T03:36:53.018Z,16.15
2017-07-14T03:37:19.140Z,16.09
2017-07-14T03:37:45.255Z,16.08
2017-07-14T03:38:11.385Z,15.97
2017-07-14T03:38:37.511Z,16.04
2017-07-14T03:39:03.627Z,16.01
2017-07-14T03:39:29.757Z,15.98
2017-07-14T03:39:55.887Z,16
2017-07-14T03:40:22.000Z,16.01
2017-07-14T03:40:48.126Z,15.88
2017-07-14T03:41:14.278Z,15.92
2017-07-14T03:41:40.395Z,15.98
2017-07-14T03:42:06.516Z,15.97
2017-07-14T03:42:32.639Z,16.01
2017-07-14T03:42:58.766Z,16.01
2017-07-14T03:43:24.898Z,16.08
2017-07-14T03:43:51.018Z,16.15
2017-07-14T03:44:17.138Z,16.05
2017-07-14T03:44:43.269Z,16.15
2017-07-14T03:45:09.382Z,16.13
2017-07-14T03:45:35.503Z,16.15
2017-07-14T03:46:01.634Z,16.13
2017-07-14T03:46:27.754Z,16.2
2017-07-14T03:46:53.869Z,16.26
2017-07-14T03:47:20.002Z,16.21
2017-07-14T03:47:46.125Z,16.26
2017-07-14T03:48:12.252Z,16.28
2017-07-14T03:48:38.368Z,16.31
2017-07-14T03:49:04.492Z,16.31
2017-07-14T03:49:30.623Z,16.29
2017-07-14T03:49:56.742Z,16.41
2017-07-14T03:50:22.859Z,16.36
2017-07-14T03:50:48.994Z,16.39
2017-07-14T03:51:15.117Z,16.46
2017-07-14T03:51:41.233Z,16.46
2017-07-14T03:52:07.364Z,16.47
2017-07-14T03:52:33.491Z,16.43
2017-07-14T03:52:59.606Z,16.51
2017-07-14T03:53:25.737Z,16.47
2017-07-14T03:53:51.853Z,16.46
2017-07-14T03:54:17.988Z,16.43
2017-07-14T03:54:44.111Z,16.41
2017-07-14T03:55:10.229Z,16.42
2017-07-14T03:55:36.359Z,16.28
2017-07-14T03:56:02.485Z,16.35
2017-07-14T03:56:28.600Z,16.26
2017-07-14T03:56:54.728Z,16.29
2017-07-14T03:57:20.861Z,16.16
2017-07-14T03:57:46.973Z,16.13
2017-07-14T03:58:13.098Z,16.04
2017-07-14T03:58:39.229Z,16.08
2017-07-14T03:59:05.346Z,16
2017-07-14T03:59:31.467Z,16.01
2017-07-14T03:59:57.602Z,15.98
2017-07-14T04:00:23.723Z,15.97
2017-07-14T04:00:49.839Z,16.02
2017-07-14T04:01:15.994Z,16.02
2017-07-14T04:01:42.119Z,16.12
2017-07-14T04:02:08.234Z,16.1
2017-07-14T04:02:34.365Z,16.12
2017-07-14T04:03:00.490Z,16.23
2017-07-14T04:03:26.606Z,16.16
2017-07-14T04:03:52.735Z,16.29
2017-07-14T04:04:18.868Z,16.32
2017-07-14T04:04:45.009Z,16.32
2017-07-14T04:05:11.130Z,16.24
2017-07-14T04:05:37.248Z,16.36
2017-07-14T04:06:03.379Z,16.31
2017-07-14T04:06:29.503Z,16.26
2017-07-14T04:06:55.618Z,16.26
2017-07-14T04:07:21.744Z,16.28
2017-07-14T04:07:47.876Z,16.17
2017-07-14T04:08:13.989Z,16.16
2017-07-14T04:08:40.113Z,16.1
2017-07-14T04:09:06.242Z,15.98
2017-07-14T04:09:32.359Z,15.97
2017-07-14T04:09:58.481Z,16.02
2017-07-14T04:10:24.605Z,16.04
2017-07-14T04:10:50.733Z,16.02
2017-07-14T04:11:16.864Z,16.08
2017-07-14T04:11:42.976Z,16.12
2017-07-14T04:12:09.101Z,16.13
2017-07-14T04:12:35.233Z,16.26
2017-07-14T04:13:01.349Z,16.28
2017-07-14T04:13:27.473Z,16.31
2017-07-14T04:13:53.603Z,16.26
2017-07-14T04:14:19.722Z,16.24
2017-07-14T04:14:45.857Z,16.31
2017-07-14T04:15:11.990Z,16.38
2017-07-14T04:15:38.112Z,16.41
2017-07-14T04:16:04.241Z,16.38
2017-07-14T04:16:30.355Z,16.39
2017-07-14T04:16:56.476Z,16.41
2017-07-14T04:17:22.605Z,16.47
2017-07-14T04:17:48.721Z,16.41
2017-07-14T04:18:14.837Z,16.39
2017-07-14T04:18:40.970Z,16.53
2017-07-14T04:19:07.092Z,16.49
2017-07-14T04:19:33.210Z,16.46
2017-07-14T04:19:59.341Z,16.51
2017-07-14T04:20:25.466Z,16.56
2017-07-14T04:20:51.581Z,16.6
2017-07-14T04:21:17.711Z,16.61
2017-07-14T04:21:43.828Z,16.58
2017-07-14T04:22:09.963Z,16.57
2017-07-14T04:22:36.085Z,16.61
2017-07-14T04:23:02.200Z,16.72
2017-07-14T04:23:28.332Z,16.71
2017-07-14T04:23:54.482Z,16.69
2017-07-14T04:24:20.596Z,16.64
2017-07-14T04:24:46.725Z,16.75
2017-07-14T04:25:12.857Z,16.69
2017-07-14T04:25:38.970Z,16.6
2017-07-14T04:26:05.097Z,16.65
2017-07-14T04:26:31.228Z,16.71
2017-07-14T04:26:57.343Z,16.65
2017-07-14T04:27:23.472Z,16.66
2017-07-14T04:27:49.588Z,16.65
2017-07-14T04:28:15.715Z,16.65
2017-07-14T04:28:41.852Z,16.69
2017-07-14T04:29:07.985Z,16.71
2017-07-14T04:29:34.111Z,16.79
2017-07-14T04:30:00.244Z,16.74
2017-07-14T04:30:26.381Z,16.72
2017-07-14T04:30:52.519Z,16.66
2017-07-14T04:31:18.650Z,16.61
2017-07-14T04:31:44.768Z,16.51
2017-07-14T04:32:10.885Z,16.43
2017-07-14T04:32:37.013Z,16.49
2017-07-14T04:33:03.137Z,16.38
2017-07-14T04:33:29.268Z,16.36
2017-07-14T04:33:55.407Z,16.5
2017-07-14T04:34:21.528Z,16.38
2017-07-14T04:34:47.659Z,16.39
2017-07-14T04:35:13.778Z,16.41
2017-07-14T04:35:39.894Z,16.38
2017-07-14T04:36:06.029Z,16.43
2017-07-14T04:36:32.154Z,16.5
2017-07-14T04:36:58.266Z,16.51
2017-07-14T04:37:24.397Z,16.49
2017-07-14T04:37:50.522Z,16.61
2017-07-14T04:38:16.648Z,16.64
2017-07-14T04:38:42.767Z,16.6
2017-07-14T04:39:08.882Z,16.66
2017-07-14T04:39:35.017Z,16.71
2017-07-14T04:40:01.142Z,16.79
2017-07-14T04:40:27.257Z,16.78
2017-07-14T04:40:53.391Z,16.76
2017-07-14T04:41:19.520Z,16.76
2017-07-14T04:41:45.632Z,16.84
2017-07-14T04:42:11.761Z,16.75
2017-07-14T04:42:37.890Z,16.64
2017-07-14T04:43:04.003Z,16.61
2017-07-14T04:43:30.129Z,16.54
2017-07-14T04:43:56.263Z,16.51
2017-07-14T04:44:22.378Z,16.53
2017-07-14T04:44:48.500Z,16.49
2017-07-14T04:45:14.631Z,16.56
2017-07-14T04:45:40.749Z,16.47
2017-07-14T04:46:06.866Z,16.46
2017-07-14T04:46:33.000Z,16.5
2017-07-14T04:46:59.123Z,16.51
2017-07-14T04:47:25.257Z,16.51
2017-07-14T04:47:51.389Z,16.6
2017-07-14T04:48:17.515Z,16.68
2017-07-14T04:48:43.631Z,16.68
2017-07-14T04:49:09.759Z,16.69
2017-07-14T04:49:35.874Z,16.75
2017-07-14T04:50:02.010Z,16.79
2017-07-14T04:50:28.136Z,16.91
2017-07-14T04:50:54.254Z,16.86
2017-07-14T04:51:20.386Z,16.93
2017-07-14T04:51:46.510Z,16.84
2017-07-14T04:52:12.626Z,17.01
2017-07-14T04:52:38.756Z,17.16
2017-07-14T04:53:04.889Z,17.38
2017-07-14T04:53:31.002Z,17.51
2017-07-14T04:53:57.127Z,17.72
2017-07-14T04:54:23.259Z,17.94
2017-07-14T04:54:49.375Z,18.18
2017-07-14T04:55:15.504Z,18.37
2017-07-14T04:55:41.620Z,18.68
2017-07-14T04:56:07.747Z,18.83
2017-07-14T04:56:33.876Z,19.14
2017-07-14T04:56:59.989Z,19.36
2017-07-14T04:57:26.114Z,19.56
2017-07-14T04:57:52.248Z,19.77
2017-07-14T04:58:18.368Z,19.96
2017-07-14T04:58:44.486Z,20.18
2017-07-14T04:59:10.615Z,20.09
2017-07-14T04:59:36.735Z,20.07
2017-07-14T05:00:02.852Z,20.06
2017-07-14T05:00:28.981Z,20.06
2017-07-14T05:00:55.105Z,20
2017-07-14T05:01:21.236Z,19.92
2017-07-14T05:01:47.352Z,19.81
2017-07-14T05:02:13.474Z,19.63
2017-07-14T05:02:39.630Z,19.69
2017-07-14T05:03:05.750Z,19.71
2017-07-14T05:03:31.867Z,19.82
2017-07-14T05:03:58.004Z,19.79
2017-07-14T05:04:24.129Z,19.81
2017-07-14T05:04:50.243Z,19.84
2017-07-14T05:05:16.377Z,19.69
2017-07-14T05:05:42.503Z,19.62
2017-07-14T05:06:08.629Z,19.58
2017-07-14T05:06:34.750Z,19.64
2017-07-14T05:07:00.865Z,19.73
2017-07-14T05:07:26.998Z,19.76
2017-07-14T05:07:53.121Z,19.77
2017-07-14T05:08:19.238Z,19.79
2017-07-14T05:08:45.372Z,19.69
2017-07-14T05:09:11.496Z,19.73
2017-07-14T05:09:37.613Z,19.79
2017-07-14T05:10:03.740Z,19.81
2017-07-14T05:10:29.873Z,19.73
2017-07-14T05:10:55.990Z,19.59
2017-07-14T05:11:22.117Z,19.64
2017-07-14T05:11:48.259Z,19.62
2017-07-14T05:12:14.398Z,19.63
2017-07-14T05:12:40.517Z,19.63
2017-07-14T05:13:06.636Z,19.59
2017-07-14T05:13:32.782Z,19.67
2017-07-14T05:13:58.913Z,19.63
2017-07-14T05:14:25.027Z,19.56
2017-07-14T05:14:51.151Z,19.51
2017-07-14T05:15:17.284Z,19.52
2017-07-14T05:15:43.400Z,19.58
2017-07-14T05:16:09.522Z,19.27
2017-07-14T05:16:35.657Z,19.26
2017-07-14T05:17:01.777Z,19.02
2017-07-14T05:17:27.909Z,18.83
2017-07-14T05:17:54.020Z,18.78
2017-07-14T05:18:20.147Z,18.78
2017-07-14T05:18:46.277Z,18.74
2017-07-14T05:19:12.393Z,18.74
2017-07-14T05:19:38.515Z,18.77
2017-07-14T05:20:04.645Z,18.77
2017-07-14T05:20:30.766Z,18.8
2017-07-14T05:20:56.883Z,18.75
2017-07-14T05:21:23.019Z,18.81
2017-07-14T05:21:49.142Z,18.83
2017-07-14T05:22:15.261Z,18.83
2017-07-14T05:22:41.391Z,18.83
2017-07-14T05:23:07.512Z,18.81
2017-07-14T05:23:33.645Z,18.77
2017-07-14T05:23:59.764Z,18.74
2017-07-14T05:24:25.879Z,18.78
2017-07-14T05:24:52.011Z,18.78
2017-07-14T05:25:18.131Z,18.8
2017-07-14T05:25:44.247Z,18.81
2017-07-14T05:26:10.381Z,18.68
2017-07-14T05:26:36.529Z,18.59
2017-07-14T05:27:02.646Z,18.5
2017-07-14T05:27:28.777Z,18.5
2017-07-14T05:27:54.909Z,18.41
2017-07-14T05:28:21.023Z,18.33
2017-07-14T05:28:47.149Z,18.33
2017-07-14T05:29:13.302Z,18.28
2017-07-14T05:29:39.419Z,18.19
2017-07-14T05:30:05.542Z,18.18
2017-07-14T05:30:31.675Z,18.13
2017-07-14T05:30:57.794Z,18.08
2017-07-14T05:31:23.913Z,18.22
2017-07-14T05:31:50.049Z,18.15
2017-07-14T05:32:16.171Z,18.15
2017-07-14T05:32:42.286Z,18.07
2017-07-14T05:33:08.418Z,18.25
2017-07-14T05:33:34.544Z,18.19
2017-07-14T05:34:00.688Z,18.22
2017-07-14T05:34:26.807Z,18.18
2017-07-14T05:34:52.922Z,18.22
2017-07-14T05:35:19.058Z,18.16
2017-07-14T05:35:45.180Z,18.07
2017-07-14T05:36:11.294Z,18.1
2017-07-14T05:36:37.425Z,18.16
2017-07-14T05:37:03.551Z,18.22
2017-07-14T05:37:29.667Z,18.26
2017-07-14T05:37:55.797Z,18.15